sensor_id;sensor_type;location;lat;lon;timestamp;P1;durP1;ratioP1;P2;durP2;ratioP2
15077;SDS011;7638;49.760;8.646;2023-04-10T00:00:17;5.43;;;4.63;;
15077;SDS011;7638;49.760;8.646;2023-04-10T00:02:44;6.77;;;5.10;;
15077;SDS011;7638;49.760;8.646;2023-04-10T00:05:10;6.20;;;5.20;;
15077;SDS011;7638;49.760;8.646;2023-04-10T00:07:36;8.43;;;5.20;;
15077;SDS011;7638;49.760;8.646;2023-04-10T00:10:02;6.03;;;4.67;;
15077;SDS011;7638;49.760;8.646;2023-04-10T00:12:28;4.90;;;4.03;;
15077;SDS011;7638;49.760;8.646;2023-04-10T00:14:54;6.70;;;4.77;;
15077;SDS011;7638;49.760;8.646;2023-04-10T00:17:20;6.50;;;4.67;;
15077;SDS011;7638;49.760;8.646;2023-04-10T00:19:49;6.93;;;5.23;;
15077;SDS011;7638;49.760;8.646;2023-04-10T00:22:15;6.03;;;4.47;;
15077;SDS011;7638;49.760;8.646;2023-04-10T00:24:41;6.53;;;4.77;;
15077;SDS011;7638;49.760;8.646;2023-04-10T00:27:07;6.93;;;5.07;;
15077;SDS011;7638;49.760;8.646;2023-04-10T00:29:34;6.60;;;5.20;;
15077;SDS011;7638;49.760;8.646;2023-04-10T00:32:05;5.20;;;4.57;;
15077;SDS011;7638;49.760;8.646;2023-04-10T00:34:31;8.30;;;5.13;;
15077;SDS011;7638;49.760;8.646;2023-04-10T00:36:57;6.23;;;5.10;;
15077;SDS011;7638;49.760;8.646;2023-04-10T00:39:29;6.40;;;4.90;;
15077;SDS011;7638;49.760;8.646;2023-04-10T00:41:55;7.27;;;4.90;;
15077;SDS011;7638;49.760;8.646;2023-04-10T00:44:21;6.97;;;5.53;;
15077;SDS011;7638;49.760;8.646;2023-04-10T00:46:47;7.20;;;4.63;;
15077;SDS011;7638;49.760;8.646;2023-04-10T00:49:13;8.10;;;5.33;;
15077;SDS011;7638;49.760;8.646;2023-04-10T00:51:42;7.30;;;5.50;;
15077;SDS011;7638;49.760;8.646;2023-04-10T00:54:08;7.80;;;5.63;;
15077;SDS011;7638;49.760;8.646;2023-04-10T00:56:36;5.77;;;4.40;;
15077;SDS011;7638;49.760;8.646;2023-04-10T00:59:02;7.73;;;5.60;;
15077;SDS011;7638;49.760;8.646;2023-04-10T01:01:28;7.73;;;5.17;;
15077;SDS011;7638;49.760;8.646;2023-04-10T01:03:54;6.60;;;4.53;;
15077;SDS011;7638;49.760;8.646;2023-04-10T01:09:16;6.43;;;4.83;;
15077;SDS011;7638;49.760;8.646;2023-04-10T01:12:50;8.97;;;5.63;;
15077;SDS011;7638;49.760;8.646;2023-04-10T01:14:52;5.90;;;4.20;;
15077;SDS011;7638;49.760;8.646;2023-04-10T01:17:28;6.73;;;5.07;;
15077;SDS011;7638;49.760;8.646;2023-04-10T01:20:29;5.40;;;4.90;;
15077;SDS011;7638;49.760;8.646;2023-04-10T01:28:48;7.50;;;4.97;;
15077;SDS011;7638;49.760;8.646;2023-04-10T01:30:46;5.53;;;4.77;;
15077;SDS011;7638;49.760;8.646;2023-04-10T01:33:17;6.10;;;4.67;;
15077;SDS011;7638;49.760;8.646;2023-04-10T01:35:46;5.77;;;4.43;;
15077;SDS011;7638;49.760;8.646;2023-04-10T01:38:14;9.93;;;5.20;;
15077;SDS011;7638;49.760;8.646;2023-04-10T01:40:46;6.73;;;4.83;;
15077;SDS011;7638;49.760;8.646;2023-04-10T01:43:18;6.87;;;4.67;;
15077;SDS011;7638;49.760;8.646;2023-04-10T01:45:45;7.10;;;5.27;;
15077;SDS011;7638;49.760;8.646;2023-04-10T01:48:12;5.93;;;4.60;;
15077;SDS011;7638;49.760;8.646;2023-04-10T01:50:41;6.03;;;4.63;;
15077;SDS011;7638;49.760;8.646;2023-04-10T01:53:08;6.20;;;5.13;;
15077;SDS011;7638;49.760;8.646;2023-04-10T01:55:34;7.17;;;4.53;;
15077;SDS011;7638;49.760;8.646;2023-04-10T01:58:02;6.50;;;4.83;;
15077;SDS011;7638;49.760;8.646;2023-04-10T02:00:47;6.80;;;4.73;;
15077;SDS011;7638;49.760;8.646;2023-04-10T02:03:21;5.67;;;4.17;;
15077;SDS011;7638;49.760;8.646;2023-04-10T02:08:33;5.23;;;4.20;;
15077;SDS011;7638;49.760;8.646;2023-04-10T02:11:06;5.97;;;4.70;;
15077;SDS011;7638;49.760;8.646;2023-04-10T02:13:42;6.53;;;4.20;;
15077;SDS011;7638;49.760;8.646;2023-04-10T02:16:08;6.17;;;4.63;;
15077;SDS011;7638;49.760;8.646;2023-04-10T02:18:35;5.97;;;4.43;;
15077;SDS011;7638;49.760;8.646;2023-04-10T02:21:01;6.67;;;4.93;;
15077;SDS011;7638;49.760;8.646;2023-04-10T02:23:28;5.57;;;4.67;;
15077;SDS011;7638;49.760;8.646;2023-04-10T02:25:54;6.60;;;5.27;;
15077;SDS011;7638;49.760;8.646;2023-04-10T02:28:21;6.17;;;4.70;;
15077;SDS011;7638;49.760;8.646;2023-04-10T02:30:47;6.30;;;4.67;;
15077;SDS011;7638;49.760;8.646;2023-04-10T02:33:18;5.77;;;4.20;;
15077;SDS011;7638;49.760;8.646;2023-04-10T02:35:44;5.73;;;4.77;;
15077;SDS011;7638;49.760;8.646;2023-04-10T02:38:10;6.30;;;4.60;;
15077;SDS011;7638;49.760;8.646;2023-04-10T02:40:39;6.53;;;5.00;;
15077;SDS011;7638;49.760;8.646;2023-04-10T02:43:14;6.63;;;4.90;;
15077;SDS011;7638;49.760;8.646;2023-04-10T02:45:40;7.27;;;5.00;;
15077;SDS011;7638;49.760;8.646;2023-04-10T02:48:06;5.20;;;4.20;;
15077;SDS011;7638;49.760;8.646;2023-04-10T02:50:32;6.30;;;4.70;;
15077;SDS011;7638;49.760;8.646;2023-04-10T02:52:58;7.87;;;5.00;;
15077;SDS011;7638;49.760;8.646;2023-04-10T02:55:25;5.40;;;4.70;;
15077;SDS011;7638;49.760;8.646;2023-04-10T02:57:51;8.73;;;4.77;;
15077;SDS011;7638;49.760;8.646;2023-04-10T03:00:17;7.07;;;4.43;;
15077;SDS011;7638;49.760;8.646;2023-04-10T03:02:53;6.23;;;4.70;;
15077;SDS011;7638;49.760;8.646;2023-04-10T03:05:19;4.83;;;4.33;;
15077;SDS011;7638;49.760;8.646;2023-04-10T03:07:45;7.00;;;5.03;;
15077;SDS011;7638;49.760;8.646;2023-04-10T03:10:11;5.43;;;4.50;;
15077;SDS011;7638;49.760;8.646;2023-04-10T03:12:40;6.50;;;4.43;;
15077;SDS011;7638;49.760;8.646;2023-04-10T03:15:06;6.20;;;4.90;;
15077;SDS011;7638;49.760;8.646;2023-04-10T03:17:32;6.60;;;4.47;;
15077;SDS011;7638;49.760;8.646;2023-04-10T03:19:59;5.97;;;4.40;;
15077;SDS011;7638;49.760;8.646;2023-04-10T03:22:25;6.27;;;4.77;;
15077;SDS011;7638;49.760;8.646;2023-04-10T03:24:52;5.83;;;4.37;;
15077;SDS011;7638;49.760;8.646;2023-04-10T03:27:18;7.10;;;4.77;;
15077;SDS011;7638;49.760;8.646;2023-04-10T03:29:44;4.53;;;3.80;;
15077;SDS011;7638;49.760;8.646;2023-04-10T03:32:13;7.20;;;4.00;;
15077;SDS011;7638;49.760;8.646;2023-04-10T03:34:39;5.40;;;4.07;;
15077;SDS011;7638;49.760;8.646;2023-04-10T03:37:05;5.03;;;4.03;;
15077;SDS011;7638;49.760;8.646;2023-04-10T03:39:34;6.03;;;4.30;;
15077;SDS011;7638;49.760;8.646;2023-04-10T03:42:03;6.70;;;4.13;;
15077;SDS011;7638;49.760;8.646;2023-04-10T03:44:29;4.67;;;3.87;;
15077;SDS011;7638;49.760;8.646;2023-04-10T03:46:55;5.90;;;4.23;;
15077;SDS011;7638;49.760;8.646;2023-04-10T03:49:21;5.00;;;3.80;;
15077;SDS011;7638;49.760;8.646;2023-04-10T03:51:47;4.73;;;4.03;;
15077;SDS011;7638;49.760;8.646;2023-04-10T03:54:13;5.07;;;3.80;;
15077;SDS011;7638;49.760;8.646;2023-04-10T03:56:39;5.23;;;4.13;;
15077;SDS011;7638;49.760;8.646;2023-04-10T03:59:05;4.50;;;3.50;;
15077;SDS011;7638;49.760;8.646;2023-04-10T04:01:31;6.17;;;4.73;;
15077;SDS011;7638;49.760;8.646;2023-04-10T04:03:57;6.70;;;4.50;;
15077;SDS011;7638;49.760;8.646;2023-04-10T04:06:23;6.87;;;4.67;;
15077;SDS011;7638;49.760;8.646;2023-04-10T04:08:49;5.00;;;3.60;;
15077;SDS011;7638;49.760;8.646;2023-04-10T04:11:15;5.40;;;4.13;;
15077;SDS011;7638;49.760;8.646;2023-04-10T04:13:41;4.33;;;3.70;;
15077;SDS011;7638;49.760;8.646;2023-04-10T04:16:08;4.60;;;3.80;;
15077;SDS011;7638;49.760;8.646;2023-04-10T04:18:34;4.97;;;3.80;;
15077;SDS011;7638;49.760;8.646;2023-04-10T04:21:00;7.93;;;5.07;;
15077;SDS011;7638;49.760;8.646;2023-04-10T04:23:26;6.20;;;4.50;;
15077;SDS011;7638;49.760;8.646;2023-04-10T04:25:52;5.03;;;4.03;;
15077;SDS011;7638;49.760;8.646;2023-04-10T04:28:20;4.87;;;3.83;;
15077;SDS011;7638;49.760;8.646;2023-04-10T04:30:46;5.53;;;4.47;;
15077;SDS011;7638;49.760;8.646;2023-04-10T04:33:18;4.97;;;3.77;;
15077;SDS011;7638;49.760;8.646;2023-04-10T04:35:44;4.97;;;3.60;;
15077;SDS011;7638;49.760;8.646;2023-04-10T04:38:10;5.33;;;3.90;;
15077;SDS011;7638;49.760;8.646;2023-04-10T04:40:39;5.57;;;3.93;;
15077;SDS011;7638;49.760;8.646;2023-04-10T04:43:05;5.60;;;3.30;;
15077;SDS011;7638;49.760;8.646;2023-04-10T04:45:31;5.70;;;4.03;;
15077;SDS011;7638;49.760;8.646;2023-04-10T04:47:57;4.63;;;3.63;;
15077;SDS011;7638;49.760;8.646;2023-04-10T04:50:23;4.90;;;4.03;;
15077;SDS011;7638;49.760;8.646;2023-04-10T04:52:49;5.63;;;4.50;;
15077;SDS011;7638;49.760;8.646;2023-04-10T04:55:15;5.23;;;4.07;;
15077;SDS011;7638;49.760;8.646;2023-04-10T04:57:41;4.17;;;3.77;;
15077;SDS011;7638;49.760;8.646;2023-04-10T05:00:07;4.87;;;3.93;;
15077;SDS011;7638;49.760;8.646;2023-04-10T05:02:36;5.43;;;4.67;;
15077;SDS011;7638;49.760;8.646;2023-04-10T05:05:02;5.47;;;4.03;;
15077;SDS011;7638;49.760;8.646;2023-04-10T05:07:28;6.73;;;4.43;;
15077;SDS011;7638;49.760;8.646;2023-04-10T05:09:55;5.67;;;4.43;;
15077;SDS011;7638;49.760;8.646;2023-04-10T05:12:21;6.13;;;4.73;;
15077;SDS011;7638;49.760;8.646;2023-04-10T05:14:50;6.03;;;4.53;;
15077;SDS011;7638;49.760;8.646;2023-04-10T05:17:19;4.73;;;3.73;;
15077;SDS011;7638;49.760;8.646;2023-04-10T05:19:45;4.67;;;3.43;;
15077;SDS011;7638;49.760;8.646;2023-04-10T05:22:11;6.57;;;4.23;;
15077;SDS011;7638;49.760;8.646;2023-04-10T05:24:37;5.47;;;4.20;;
15077;SDS011;7638;49.760;8.646;2023-04-10T05:27:03;5.90;;;4.33;;
15077;SDS011;7638;49.760;8.646;2023-04-10T05:29:29;5.43;;;4.43;;
15077;SDS011;7638;49.760;8.646;2023-04-10T05:31:58;5.83;;;4.50;;
15077;SDS011;7638;49.760;8.646;2023-04-10T05:34:25;5.40;;;4.10;;
15077;SDS011;7638;49.760;8.646;2023-04-10T05:36:51;6.27;;;4.27;;
15077;SDS011;7638;49.760;8.646;2023-04-10T05:39:20;6.13;;;4.27;;
15077;SDS011;7638;49.760;8.646;2023-04-10T05:41:47;4.97;;;3.87;;
15077;SDS011;7638;49.760;8.646;2023-04-10T05:44:13;8.73;;;4.17;;
15077;SDS011;7638;49.760;8.646;2023-04-10T05:46:39;6.50;;;4.43;;
15077;SDS011;7638;49.760;8.646;2023-04-10T05:49:05;5.87;;;4.20;;
15077;SDS011;7638;49.760;8.646;2023-04-10T05:51:31;5.60;;;4.37;;
15077;SDS011;7638;49.760;8.646;2023-04-10T05:53:57;8.93;;;4.60;;
15077;SDS011;7638;49.760;8.646;2023-04-10T05:56:23;6.13;;;4.80;;
15077;SDS011;7638;49.760;8.646;2023-04-10T05:58:49;4.87;;;3.57;;
15077;SDS011;7638;49.760;8.646;2023-04-10T06:01:33;5.77;;;4.00;;
15077;SDS011;7638;49.760;8.646;2023-04-10T06:03:59;6.37;;;4.30;;
15077;SDS011;7638;49.760;8.646;2023-04-10T06:06:26;5.67;;;4.23;;
15077;SDS011;7638;49.760;8.646;2023-04-10T06:08:53;6.43;;;4.73;;
15077;SDS011;7638;49.760;8.646;2023-04-10T06:11:19;6.87;;;4.43;;
15077;SDS011;7638;49.760;8.646;2023-04-10T06:13:45;6.57;;;4.57;;
15077;SDS011;7638;49.760;8.646;2023-04-10T06:16:15;5.33;;;4.23;;
15077;SDS011;7638;49.760;8.646;2023-04-10T06:18:48;5.70;;;4.23;;
15077;SDS011;7638;49.760;8.646;2023-04-10T06:21:19;4.53;;;4.00;;
15077;SDS011;7638;49.760;8.646;2023-04-10T06:23:45;4.73;;;3.87;;
15077;SDS011;7638;49.760;8.646;2023-04-10T06:26:14;5.40;;;3.97;;
15077;SDS011;7638;49.760;8.646;2023-04-10T06:28:46;6.30;;;4.03;;
15077;SDS011;7638;49.760;8.646;2023-04-10T06:31:18;8.37;;;4.57;;
15077;SDS011;7638;49.760;8.646;2023-04-10T06:33:49;5.97;;;4.50;;
15077;SDS011;7638;49.760;8.646;2023-04-10T06:36:18;5.67;;;4.60;;
15077;SDS011;7638;49.760;8.646;2023-04-10T06:38:44;5.83;;;4.43;;
15077;SDS011;7638;49.760;8.646;2023-04-10T06:41:10;5.37;;;4.27;;
15077;SDS011;7638;49.760;8.646;2023-04-10T06:43:37;5.83;;;4.63;;
15077;SDS011;7638;49.760;8.646;2023-04-10T06:46:07;5.83;;;4.13;;
15077;SDS011;7638;49.760;8.646;2023-04-10T06:48:36;5.63;;;4.33;;
15077;SDS011;7638;49.760;8.646;2023-04-10T06:51:05;7.20;;;4.53;;
15077;SDS011;7638;49.760;8.646;2023-04-10T06:53:34;6.40;;;4.77;;
15077;SDS011;7638;49.760;8.646;2023-04-10T06:56:03;5.73;;;4.20;;
15077;SDS011;7638;49.760;8.646;2023-04-10T06:58:29;4.90;;;3.90;;
15077;SDS011;7638;49.760;8.646;2023-04-10T07:00:55;6.57;;;4.33;;
15077;SDS011;7638;49.760;8.646;2023-04-10T07:03:22;5.73;;;4.40;;
15077;SDS011;7638;49.760;8.646;2023-04-10T07:05:48;6.13;;;4.33;;
15077;SDS011;7638;49.760;8.646;2023-04-10T07:08:14;6.17;;;4.93;;
15077;SDS011;7638;49.760;8.646;2023-04-10T07:10:44;4.73;;;4.10;;
15077;SDS011;7638;49.760;8.646;2023-04-10T07:13:19;4.90;;;3.80;;
15077;SDS011;7638;49.760;8.646;2023-04-10T07:15:45;5.37;;;4.20;;
15077;SDS011;7638;49.760;8.646;2023-04-10T07:18:16;6.23;;;4.57;;
15077;SDS011;7638;49.760;8.646;2023-04-10T07:20:49;7.07;;;4.67;;
15077;SDS011;7638;49.760;8.646;2023-04-10T07:23:19;5.13;;;4.17;;
15077;SDS011;7638;49.760;8.646;2023-04-10T07:25:54;5.60;;;3.80;;
15077;SDS011;7638;49.760;8.646;2023-04-10T07:28:20;5.80;;;4.03;;
15077;SDS011;7638;49.760;8.646;2023-04-10T07:30:46;6.37;;;4.30;;
15077;SDS011;7638;49.760;8.646;2023-04-10T07:33:12;5.70;;;4.40;;
15077;SDS011;7638;49.760;8.646;2023-04-10T07:35:38;4.93;;;3.83;;
15077;SDS011;7638;49.760;8.646;2023-04-10T07:38:04;6.20;;;4.40;;
15077;SDS011;7638;49.760;8.646;2023-04-10T07:40:30;4.77;;;3.93;;
15077;SDS011;7638;49.760;8.646;2023-04-10T07:42:56;5.47;;;3.60;;
15077;SDS011;7638;49.760;8.646;2023-04-10T07:45:22;5.00;;;3.63;;
15077;SDS011;7638;49.760;8.646;2023-04-10T07:47:48;5.00;;;3.80;;
15077;SDS011;7638;49.760;8.646;2023-04-10T07:50:14;4.53;;;3.60;;
15077;SDS011;7638;49.760;8.646;2023-04-10T07:52:41;5.83;;;3.67;;
15077;SDS011;7638;49.760;8.646;2023-04-10T07:55:07;4.90;;;3.90;;
15077;SDS011;7638;49.760;8.646;2023-04-10T07:57:34;4.67;;;3.47;;
15077;SDS011;7638;49.760;8.646;2023-04-10T08:00:00;4.00;;;3.40;;
15077;SDS011;7638;49.760;8.646;2023-04-10T08:02:26;3.80;;;3.20;;
15077;SDS011;7638;49.760;8.646;2023-04-10T08:04:52;4.20;;;3.50;;
15077;SDS011;7638;49.760;8.646;2023-04-10T08:07:19;5.37;;;3.80;;
15077;SDS011;7638;49.760;8.646;2023-04-10T08:09:46;4.70;;;3.50;;
15077;SDS011;7638;49.760;8.646;2023-04-10T08:12:12;4.17;;;3.60;;
15077;SDS011;7638;49.760;8.646;2023-04-10T08:14:38;4.83;;;3.40;;
15077;SDS011;7638;49.760;8.646;2023-04-10T08:17:04;5.07;;;3.63;;
15077;SDS011;7638;49.760;8.646;2023-04-10T08:19:33;4.50;;;3.47;;
15077;SDS011;7638;49.760;8.646;2023-04-10T08:22:02;4.80;;;3.17;;
15077;SDS011;7638;49.760;8.646;2023-04-10T08:24:28;4.60;;;3.50;;
15077;SDS011;7638;49.760;8.646;2023-04-10T08:26:54;4.17;;;3.13;;
15077;SDS011;7638;49.760;8.646;2023-04-10T08:29:20;4.07;;;3.17;;
15077;SDS011;7638;49.760;8.646;2023-04-10T08:31:46;4.53;;;3.30;;
15077;SDS011;7638;49.760;8.646;2023-04-10T08:34:12;3.63;;;2.97;;
15077;SDS011;7638;49.760;8.646;2023-04-10T08:36:38;4.03;;;3.27;;
15077;SDS011;7638;49.760;8.646;2023-04-10T08:39:04;4.37;;;2.77;;
15077;SDS011;7638;49.760;8.646;2023-04-10T08:41:30;3.47;;;2.97;;
15077;SDS011;7638;49.760;8.646;2023-04-10T08:43:56;4.17;;;2.90;;
15077;SDS011;7638;49.760;8.646;2023-04-10T08:46:22;3.97;;;3.10;;
15077;SDS011;7638;49.760;8.646;2023-04-10T08:51:23;3.00;;;2.70;;
15077;SDS011;7638;49.760;8.646;2023-04-10T08:53:51;3.47;;;2.50;;
15077;SDS011;7638;49.760;8.646;2023-04-10T08:56:18;2.60;;;2.37;;
15077;SDS011;7638;49.760;8.646;2023-04-10T08:58:44;3.07;;;2.70;;
15077;SDS011;7638;49.760;8.646;2023-04-10T09:01:10;3.20;;;2.90;;
15077;SDS011;7638;49.760;8.646;2023-04-10T09:03:40;2.37;;;2.17;;
15077;SDS011;7638;49.760;8.646;2023-04-10T09:06:06;2.43;;;2.00;;
15077;SDS011;7638;49.760;8.646;2023-04-10T09:08:32;3.13;;;2.83;;
15077;SDS011;7638;49.760;8.646;2023-04-10T09:10:59;2.20;;;2.00;;
15077;SDS011;7638;49.760;8.646;2023-04-10T09:13:41;2.60;;;2.40;;
15077;SDS011;7638;49.760;8.646;2023-04-10T09:16:08;2.50;;;2.30;;
15077;SDS011;7638;49.760;8.646;2023-04-10T09:18:45;2.50;;;2.30;;
15077;SDS011;7638;49.760;8.646;2023-04-10T09:21:12;2.77;;;2.33;;
15077;SDS011;7638;49.760;8.646;2023-04-10T09:23:39;2.30;;;2.00;;
15077;SDS011;7638;49.760;8.646;2023-04-10T09:26:25;2.37;;;2.17;;
15077;SDS011;7638;49.760;8.646;2023-04-10T09:29:02;2.27;;;2.07;;
15077;SDS011;7638;49.760;8.646;2023-04-10T09:31:35;2.33;;;2.10;;
15077;SDS011;7638;49.760;8.646;2023-04-10T09:34:05;2.77;;;2.47;;
15077;SDS011;7638;49.760;8.646;2023-04-10T09:36:31;2.43;;;1.90;;
15077;SDS011;7638;49.760;8.646;2023-04-10T09:38:57;2.43;;;1.87;;
15077;SDS011;7638;49.760;8.646;2023-04-10T09:41:23;3.00;;;2.53;;
15077;SDS011;7638;49.760;8.646;2023-04-10T09:43:50;2.33;;;1.77;;
15077;SDS011;7638;49.760;8.646;2023-04-10T09:46:30;2.50;;;2.30;;
15077;SDS011;7638;49.760;8.646;2023-04-10T09:48:55;2.73;;;2.43;;
15077;SDS011;7638;49.760;8.646;2023-04-10T09:51:27;2.30;;;2.10;;
15077;SDS011;7638;49.760;8.646;2023-04-10T09:53:54;2.57;;;2.07;;
15077;SDS011;7638;49.760;8.646;2023-04-10T09:56:21;2.30;;;2.10;;
15077;SDS011;7638;49.760;8.646;2023-04-10T09:58:48;3.33;;;2.20;;
15077;SDS011;7638;49.760;8.646;2023-04-10T10:01:17;2.80;;;2.50;;
15077;SDS011;7638;49.760;8.646;2023-04-10T10:03:43;3.57;;;2.07;;
15077;SDS011;7638;49.760;8.646;2023-04-10T10:06:10;2.23;;;2.03;;
15077;SDS011;7638;49.760;8.646;2023-04-10T10:08:36;2.90;;;2.53;;
15077;SDS011;7638;49.760;8.646;2023-04-10T10:11:02;2.67;;;2.30;;
15077;SDS011;7638;49.760;8.646;2023-04-10T10:13:40;3.40;;;2.30;;
15077;SDS011;7638;49.760;8.646;2023-04-10T10:21:00;2.47;;;2.27;;
15077;SDS011;7638;49.760;8.646;2023-04-10T10:23:27;2.43;;;2.07;;
15077;SDS011;7638;49.760;8.646;2023-04-10T10:25:53;2.63;;;2.13;;
15077;SDS011;7638;49.760;8.646;2023-04-10T10:28:19;2.50;;;2.13;;
15077;SDS011;7638;49.760;8.646;2023-04-10T10:30:46;3.37;;;2.43;;
15077;SDS011;7638;49.760;8.646;2023-04-10T10:33:13;2.40;;;2.20;;
15077;SDS011;7638;49.760;8.646;2023-04-10T10:35:39;2.33;;;2.13;;
15077;SDS011;7638;49.760;8.646;2023-04-10T10:38:06;3.37;;;2.47;;
15077;SDS011;7638;49.760;8.646;2023-04-10T10:40:50;2.53;;;2.30;;
15077;SDS011;7638;49.760;8.646;2023-04-10T10:46:11;2.17;;;1.97;;
15077;SDS011;7638;49.760;8.646;2023-04-10T10:48:39;2.23;;;1.90;;
15077;SDS011;7638;49.760;8.646;2023-04-10T10:51:05;2.73;;;2.10;;
15077;SDS011;7638;49.760;8.646;2023-04-10T10:55:57;2.37;;;1.67;;
15077;SDS011;7638;49.760;8.646;2023-04-10T11:01:08;2.27;;;2.07;;
15077;SDS011;7638;49.760;8.646;2023-04-10T11:03:35;1.70;;;1.60;;
15077;SDS011;7638;49.760;8.646;2023-04-10T11:06:10;2.70;;;2.10;;
15077;SDS011;7638;49.760;8.646;2023-04-10T11:08:49;2.10;;;1.90;;
15077;SDS011;7638;49.760;8.646;2023-04-10T11:16:16;2.20;;;2.00;;
15077;SDS011;7638;49.760;8.646;2023-04-10T11:28:59;2.37;;;2.17;;
15077;SDS011;7638;49.760;8.646;2023-04-10T11:31:25;2.33;;;2.13;;
15077;SDS011;7638;49.760;8.646;2023-04-10T11:36:23;2.23;;;2.03;;
15077;SDS011;7638;49.760;8.646;2023-04-10T11:41:36;3.33;;;2.50;;
15077;SDS011;7638;49.760;8.646;2023-04-10T11:44:07;2.43;;;2.13;;
15077;SDS011;7638;49.760;8.646;2023-04-10T11:46:38;2.03;;;1.83;;
15077;SDS011;7638;49.760;8.646;2023-04-10T11:49:04;1.67;;;1.57;;
15077;SDS011;7638;49.760;8.646;2023-04-10T11:51:31;2.30;;;1.80;;
15077;SDS011;7638;49.760;8.646;2023-04-10T11:54:04;5.03;;;2.10;;
15077;SDS011;7638;49.760;8.646;2023-04-10T11:56:33;2.53;;;2.00;;
15077;SDS011;7638;49.760;8.646;2023-04-10T11:59:00;4.20;;;2.27;;
15077;SDS011;7638;49.760;8.646;2023-04-10T12:01:31;2.47;;;2.27;;
15077;SDS011;7638;49.760;8.646;2023-04-10T12:03:57;2.63;;;2.13;;
15077;SDS011;7638;49.760;8.646;2023-04-10T12:06:23;3.20;;;2.20;;
15077;SDS011;7638;49.760;8.646;2023-04-10T12:08:49;2.20;;;1.90;;
15077;SDS011;7638;49.760;8.646;2023-04-10T12:11:19;2.33;;;2.13;;
15077;SDS011;7638;49.760;8.646;2023-04-10T12:13:45;2.20;;;2.00;;
15077;SDS011;7638;49.760;8.646;2023-04-10T12:16:14;1.83;;;1.63;;
15077;SDS011;7638;49.760;8.646;2023-04-10T12:18:40;4.23;;;1.97;;
15077;SDS011;7638;49.760;8.646;2023-04-10T12:21:07;3.50;;;3.20;;
15077;SDS011;7638;49.760;8.646;2023-04-10T12:23:34;3.33;;;2.07;;
15077;SDS011;7638;49.760;8.646;2023-04-10T12:26:05;2.93;;;2.30;;
15077;SDS011;7638;49.760;8.646;2023-04-10T12:28:32;2.80;;;2.60;;
15077;SDS011;7638;49.760;8.646;2023-04-10T12:30:58;3.33;;;2.77;;
15077;SDS011;7638;49.760;8.646;2023-04-10T12:33:24;2.67;;;2.40;;
15077;SDS011;7638;49.760;8.646;2023-04-10T12:35:50;2.83;;;2.00;;
15077;SDS011;7638;49.760;8.646;2023-04-10T12:41:23;2.57;;;2.30;;
15077;SDS011;7638;49.760;8.646;2023-04-10T12:43:50;2.60;;;2.40;;
15077;SDS011;7638;49.760;8.646;2023-04-10T12:46:23;2.63;;;2.20;;
15077;SDS011;7638;49.760;8.646;2023-04-10T12:48:49;3.67;;;2.73;;
15077;SDS011;7638;49.760;8.646;2023-04-10T12:51:15;2.37;;;2.17;;
15077;SDS011;7638;49.760;8.646;2023-04-10T12:53:42;2.30;;;2.00;;
15077;SDS011;7638;49.760;8.646;2023-04-10T12:56:09;3.30;;;2.60;;
15077;SDS011;7638;49.760;8.646;2023-04-10T12:58:36;3.53;;;2.87;;
15077;SDS011;7638;49.760;8.646;2023-04-10T13:01:06;6.37;;;2.67;;
15077;SDS011;7638;49.760;8.646;2023-04-10T13:03:33;3.10;;;2.33;;
15077;SDS011;7638;49.760;8.646;2023-04-10T13:06:00;3.30;;;2.30;;
15077;SDS011;7638;49.760;8.646;2023-04-10T13:08:26;2.73;;;2.30;;
15077;SDS011;7638;49.760;8.646;2023-04-10T13:10:52;2.93;;;2.47;;
15077;SDS011;7638;49.760;8.646;2023-04-10T13:13:19;4.30;;;2.40;;
15077;SDS011;7638;49.760;8.646;2023-04-10T13:15:45;2.37;;;2.10;;
15077;SDS011;7638;49.760;8.646;2023-04-10T13:18:11;3.73;;;2.40;;
15077;SDS011;7638;49.760;8.646;2023-04-10T13:20:38;2.83;;;2.10;;
15077;SDS011;7638;49.760;8.646;2023-04-10T13:23:04;2.53;;;2.33;;
15077;SDS011;7638;49.760;8.646;2023-04-10T13:25:31;2.13;;;1.93;;
15077;SDS011;7638;49.760;8.646;2023-04-10T13:27:58;2.77;;;2.23;;
15077;SDS011;7638;49.760;8.646;2023-04-10T13:30:25;9.23;;;2.30;;
15077;SDS011;7638;49.760;8.646;2023-04-10T13:32:54;2.80;;;2.17;;
15077;SDS011;7638;49.760;8.646;2023-04-10T13:35:20;2.27;;;1.73;;
15077;SDS011;7638;49.760;8.646;2023-04-10T13:37:46;2.40;;;1.90;;
15077;SDS011;7638;49.760;8.646;2023-04-10T13:40:12;2.23;;;1.90;;
15077;SDS011;7638;49.760;8.646;2023-04-10T13:42:38;2.30;;;2.10;;
15077;SDS011;7638;49.760;8.646;2023-04-10T13:45:04;2.47;;;1.93;;
15077;SDS011;7638;49.760;8.646;2023-04-10T13:47:30;1.77;;;1.57;;
15077;SDS011;7638;49.760;8.646;2023-04-10T13:49:56;2.50;;;2.00;;
15077;SDS011;7638;49.760;8.646;2023-04-10T13:52:22;2.30;;;1.90;;
15077;SDS011;7638;49.760;8.646;2023-04-10T13:54:48;2.87;;;2.30;;
15077;SDS011;7638;49.760;8.646;2023-04-10T13:57:14;1.80;;;1.50;;
15077;SDS011;7638;49.760;8.646;2023-04-10T13:59:40;2.50;;;1.87;;
15077;SDS011;7638;49.760;8.646;2023-04-10T14:02:06;2.77;;;2.20;;
15077;SDS011;7638;49.760;8.646;2023-04-10T14:04:36;3.10;;;2.07;;
15077;SDS011;7638;49.760;8.646;2023-04-10T14:07:02;2.30;;;2.00;;
15077;SDS011;7638;49.760;8.646;2023-04-10T14:09:28;2.27;;;1.87;;
15077;SDS011;7638;49.760;8.646;2023-04-10T14:11:54;2.80;;;2.30;;
15077;SDS011;7638;49.760;8.646;2023-04-10T14:14:20;2.13;;;1.80;;
15077;SDS011;7638;49.760;8.646;2023-04-10T14:16:49;2.07;;;1.80;;
15077;SDS011;7638;49.760;8.646;2023-04-10T14:19:15;1.87;;;1.50;;
15077;SDS011;7638;49.760;8.646;2023-04-10T14:21:41;1.90;;;1.70;;
15077;SDS011;7638;49.760;8.646;2023-04-10T14:24:08;2.37;;;1.70;;
15077;SDS011;7638;49.760;8.646;2023-04-10T14:26:35;2.23;;;1.87;;
15077;SDS011;7638;49.760;8.646;2023-04-10T14:29:01;2.03;;;1.83;;
15077;SDS011;7638;49.760;8.646;2023-04-10T14:31:30;1.93;;;1.77;;
15077;SDS011;7638;49.760;8.646;2023-04-10T14:33:56;1.70;;;1.57;;
15077;SDS011;7638;49.760;8.646;2023-04-10T14:36:22;2.07;;;1.87;;
15077;SDS011;7638;49.760;8.646;2023-04-10T14:38:48;1.80;;;1.57;;
15077;SDS011;7638;49.760;8.646;2023-04-10T14:41:14;2.97;;;1.27;;
15077;SDS011;7638;49.760;8.646;2023-04-10T14:43:40;1.80;;;1.70;;
15077;SDS011;7638;49.760;8.646;2023-04-10T14:46:06;2.07;;;1.87;;
15077;SDS011;7638;49.760;8.646;2023-04-10T14:48:32;2.07;;;1.87;;
15077;SDS011;7638;49.760;8.646;2023-04-10T14:50:58;1.90;;;1.40;;
15077;SDS011;7638;49.760;8.646;2023-04-10T14:53:25;1.60;;;1.43;;
15077;SDS011;7638;49.760;8.646;2023-04-10T14:55:51;1.73;;;1.63;;
15077;SDS011;7638;49.760;8.646;2023-04-10T14:58:17;1.57;;;1.40;;
15077;SDS011;7638;49.760;8.646;2023-04-10T15:00:43;1.77;;;1.63;;
15077;SDS011;7638;49.760;8.646;2023-04-10T15:03:12;2.10;;;1.77;;
15077;SDS011;7638;49.760;8.646;2023-04-10T15:05:38;2.33;;;1.80;;
15077;SDS011;7638;49.760;8.646;2023-04-10T15:08:04;1.87;;;1.33;;
15077;SDS011;7638;49.760;8.646;2023-04-10T15:10:30;1.77;;;1.67;;
15077;SDS011;7638;49.760;8.646;2023-04-10T15:12:56;1.93;;;1.60;;
15077;SDS011;7638;49.760;8.646;2023-04-10T15:15:22;1.50;;;1.40;;
15077;SDS011;7638;49.760;8.646;2023-04-10T15:17:48;1.60;;;1.50;;
15077;SDS011;7638;49.760;8.646;2023-04-10T15:20:14;1.70;;;1.60;;
15077;SDS011;7638;49.760;8.646;2023-04-10T15:22:40;1.40;;;1.30;;
15077;SDS011;7638;49.760;8.646;2023-04-10T15:25:07;1.40;;;1.30;;
15077;SDS011;7638;49.760;8.646;2023-04-10T15:27:36;2.50;;;1.67;;
15077;SDS011;7638;49.760;8.646;2023-04-10T15:30:03;2.87;;;1.43;;
15077;SDS011;7638;49.760;8.646;2023-04-10T15:32:29;1.83;;;1.50;;
15077;SDS011;7638;49.760;8.646;2023-04-10T15:34:55;1.70;;;1.27;;
15077;SDS011;7638;49.760;8.646;2023-04-10T15:37:21;1.30;;;1.20;;
15077;SDS011;7638;49.760;8.646;2023-04-10T15:39:49;1.30;;;1.20;;
15077;SDS011;7638;49.760;8.646;2023-04-10T15:42:15;1.93;;;1.40;;
15077;SDS011;7638;49.760;8.646;2023-04-10T15:44:43;1.90;;;1.70;;
15077;SDS011;7638;49.760;8.646;2023-04-10T15:47:11;1.90;;;1.80;;
15077;SDS011;7638;49.760;8.646;2023-04-10T15:49:37;1.63;;;1.50;;
15077;SDS011;7638;49.760;8.646;2023-04-10T15:52:06;1.97;;;1.57;;